createdAt,value
2023-01-18T06:04:48.659Z,3.70
2023-01-18T06:09:52.268Z,3.80
2023-01-18T06:14:55.878Z,3.90
2023-01-18T06:20:01.045Z,3.90
2023-01-18T06:25:04.842Z,4.00
2023-01-18T06:30:11.112Z,4.00
2023-01-18T06:35:16.577Z,4.00
2023-01-18T06:40:20.253Z,4.00
2023-01-18T06:50:30.778Z,4.20
2023-01-18T06:55:34.745Z,4.30
2023-01-18T07:05:46.463Z,4.40
2023-01-18T07:10:50.534Z,4.20
2023-01-18T07:15:56.611Z,4.30
2023-01-18T07:21:03.290Z,4.20
2023-01-18T07:26:08.613Z,4.20
2023-01-18T07:36:17.781Z,4.40
2023-01-18T07:41:23.135Z,4.40
2023-01-18T07:46:28.005Z,4.30
2023-01-18T07:51:33.422Z,4.70
2023-01-18T08:06:46.859Z,4.30
2023-01-18T08:11:50.518Z,4.20
2023-01-18T08:16:54.223Z,4.00
2023-01-18T08:21:59.397Z,4.30
2023-01-18T08:27:03.038Z,4.30
2023-01-18T08:32:06.844Z,4.50
2023-01-18T08:37:12.233Z,4.30
2023-01-18T08:52:25.584Z,4.60
2023-01-18T09:02:33.274Z,4.50
2023-01-18T09:07:38.310Z,4.60
2023-01-18T09:17:46.163Z,4.60
2023-01-18T09:22:51.146Z,5.10
2023-01-18T09:32:59.421Z,5.60
2023-01-18T09:43:18.713Z,6.00
2023-01-18T09:48:30.659Z,6.10
2023-01-18T09:53:51.791Z,6.00
2023-01-18T09:59:06.801Z,6.20
2023-01-18T10:04:19.652Z,6.10
2023-01-18T10:09:28.330Z,6.20
2023-01-18T10:14:44.219Z,6.40
2023-01-18T10:24:59.830Z,6.80
2023-01-18T10:30:34.269Z,7.10
2023-01-18T10:35:42.862Z,7.20
2023-01-18T10:40:52.486Z,7.60
2023-01-18T10:51:01.488Z,8.10
2023-01-18T10:56:12.585Z,9.30
2023-01-18T11:01:19.711Z,9.50
2023-01-18T11:11:50.380Z,9.90
2023-01-18T11:17:02.313Z,9.60
2023-01-18T11:22:13.953Z,9.20
2023-01-18T11:27:24.989Z,8.90
2023-01-18T11:32:31.117Z,8.60
2023-01-18T11:37:37.104Z,8.30
2023-01-18T11:42:42.621Z,8.00
2023-01-18T11:48:07.221Z,7.60
2023-01-18T11:53:31.393Z,7.30
2023-01-18T11:58:37.532Z,7.10
2023-01-18T12:03:54.844Z,6.80
2023-01-18T12:09:09.405Z,6.70
2023-01-18T12:14:20.187Z,6.60
2023-01-18T12:19:48.982Z,6.50
2023-01-18T12:25:02.980Z,6.80
2023-01-18T12:30:40.846Z,7.70
2023-01-18T12:36:08.901Z,8.50
2023-01-18T12:41:35.089Z,8.70
2023-01-18T12:46:45.120Z,9.00
2023-01-18T12:51:51.927Z,9.00
2023-01-18T12:56:58.046Z,8.90
2023-01-18T13:02:12.845Z,8.90
2023-01-18T13:07:20.373Z,8.60
2023-01-18T13:17:32.080Z,8.50
2023-01-18T13:22:45.864Z,8.00
2023-01-18T13:28:01.022Z,7.80
2023-01-18T13:33:17.071Z,7.70
2023-01-18T13:38:36.246Z,7.50
2023-01-18T13:44:05.967Z,7.60
2023-01-18T13:49:38.645Z,7.70
2023-01-18T13:55:05.642Z,8.00
2023-01-18T14:00:25.760Z,8.80
2023-01-18T14:05:37.644Z,9.40
2023-01-18T14:10:49.195Z,9.60
2023-01-18T14:15:54.500Z,9.30
2023-01-18T14:21:12.643Z,8.80
2023-01-18T14:26:20.175Z,8.40
2023-01-18T14:31:29.250Z,8.10
2023-01-18T14:36:37.563Z,7.90
2023-01-18T14:41:43.428Z,7.70
2023-01-18T14:46:51.254Z,7.50
2023-01-18T14:51:59.417Z,7.10
2023-01-18T15:02:18.946Z,7.20
2023-01-18T15:07:33.970Z,6.80
2023-01-18T15:12:39.191Z,6.60
2023-01-18T15:17:44.343Z,6.50
2023-01-18T15:22:51.061Z,6.40
2023-01-18T15:27:55.701Z,6.30
2023-01-18T15:33:02.086Z,6.20
2023-01-18T15:38:07.538Z,6.20
2023-01-18T15:43:23.291Z,6.30
2023-01-18T15:48:29.357Z,6.30
2023-01-18T15:53:37.075Z,6.30
2023-01-18T15:58:44.031Z,6.40
2023-01-18T16:03:59.788Z,7.20
2023-01-18T16:09:11.851Z,6.50
2023-01-18T16:14:27.730Z,6.40
2023-01-18T16:19:34.894Z,6.40
2023-01-18T16:24:46.552Z,6.40
2023-01-18T16:29:52.621Z,6.30
2023-01-18T16:34:57.649Z,6.30
2023-01-18T16:40:02.753Z,6.20
2023-01-18T16:50:15.660Z,6.20
2023-01-18T16:55:20.673Z,6.20
2023-01-18T17:00:27.111Z,6.10
2023-01-18T17:10:39.252Z,6.00
2023-01-18T17:25:54.408Z,5.90
2023-01-18T17:41:11.308Z,5.90
2023-01-18T17:56:27.269Z,5.90
2023-01-18T18:11:45.365Z,5.80
2023-01-18T18:26:58.255Z,5.70
2023-01-18T18:32:01.922Z,5.60
2023-01-18T18:37:06.282Z,5.70
2023-01-18T18:42:11.376Z,5.80
2023-01-18T18:52:18.886Z,5.80
2023-01-18T18:57:23.860Z,5.80
2023-01-18T19:02:27.706Z,5.60
2023-01-18T19:12:38.240Z,5.80
2023-01-18T19:27:50.990Z,5.90
2023-01-18T19:43:06.056Z,6.00
2023-01-18T19:58:18.814Z,6.10
2023-01-18T20:13:32.053Z,6.00
2023-01-18T20:18:38.030Z,5.90
2023-01-18T20:23:42.872Z,5.90
2023-01-18T20:28:48.422Z,5.80
2023-01-18T20:38:55.994Z,5.60
2023-01-18T20:49:05.539Z,5.60
2023-01-18T20:59:14.368Z,5.60
2023-01-18T21:14:28.240Z,5.60
2023-01-18T21:29:41.065Z,5.70
2023-01-18T21:39:48.584Z,5.60
2023-01-18T21:45:23.156Z,5.70
2023-01-18T21:50:44.743Z,5.70
2023-01-18T22:00:53.825Z,5.90
2023-01-18T22:05:57.688Z,6.10
2023-01-18T22:26:15.127Z,6.10
2023-01-18T22:31:20.430Z,6.10
2023-01-18T22:41:29.542Z,6.00
2023-01-18T22:46:34.362Z,5.90
2023-01-18T22:51:37.830Z,5.90
2023-01-18T22:56:41.480Z,5.80
2023-01-18T23:01:46.505Z,5.70
2023-01-18T23:06:52.203Z,5.60
2023-01-18T23:11:55.887Z,5.50
2023-01-18T23:17:18.460Z,5.50
2023-01-18T23:22:22.194Z,5.50
2023-01-18T23:27:25.940Z,5.40
